createdAt,value
2022-12-08T00:00:27.168Z,100953.88
2022-12-08T00:02:53.991Z,100934.88
2022-12-08T00:05:39.344Z,100933.16
2022-12-08T00:08:24.815Z,100891.75
2022-12-08T00:10:51.505Z,100943.44
2022-12-08T00:13:18.220Z,100945.22
2022-12-08T00:15:44.867Z,100959.88
2022-12-08T00:18:12.208Z,100915.97
2022-12-08T00:20:38.925Z,100936.63
2022-12-08T00:23:05.731Z,100951.25
2022-12-08T00:25:36.515Z,100915.94
2022-12-08T00:28:03.349Z,100924.53
2022-12-08T00:30:30.004Z,100903.81
2022-12-08T00:32:56.774Z,100935.72
2022-12-08T00:35:23.445Z,100945.22
2022-12-08T00:37:50.183Z,100913.34
2022-12-08T00:40:16.921Z,100921.94
2022-12-08T00:42:43.549Z,100932.34
2022-12-08T00:45:10.756Z,100902.19
2022-12-08T00:47:37.387Z,100865.13
2022-12-08T00:50:05.179Z,100869.47
2022-12-08T00:52:31.958Z,100879.78
2022-12-08T00:54:58.616Z,100913.38
2022-12-08T00:57:25.274Z,100908.16
2022-12-08T00:59:51.942Z,100902.19
2022-12-08T01:02:18.581Z,100866.06
2022-12-08T01:04:45.630Z,100863.44
2022-12-08T01:07:12.362Z,100845.34
2022-12-08T01:09:39.050Z,100816.91
2022-12-08T01:12:06.789Z,100810.03
2022-12-08T01:14:33.567Z,100893.59
2022-12-08T01:17:00.280Z,100811.78
2022-12-08T01:19:27.024Z,100858.22
2022-12-08T01:21:53.889Z,100878.91
2022-12-08T01:24:21.517Z,100866.00
2022-12-08T01:26:49.616Z,100870.34
2022-12-08T01:29:16.400Z,100831.59
2022-12-08T01:31:43.075Z,100828.97
2022-12-08T01:34:11.491Z,100854.84
2022-12-08T01:36:38.587Z,100839.31
2022-12-08T01:39:13.947Z,100849.69
2022-12-08T01:41:40.716Z,100828.16
2022-12-08T01:44:08.385Z,100844.53
2022-12-08T01:46:43.569Z,100852.28
2022-12-08T01:49:15.716Z,100843.66
2022-12-08T01:51:49.072Z,100790.28
2022-12-08T01:54:16.411Z,100811.81
2022-12-08T01:56:49.352Z,100813.56
2022-12-08T01:59:17.422Z,100814.38
2022-12-08T02:01:44.143Z,100788.59
2022-12-08T02:04:11.306Z,100823.03
2022-12-08T02:06:43.556Z,100826.44
2022-12-08T02:09:10.676Z,100813.56
2022-12-08T02:11:37.391Z,100822.16
2022-12-08T02:14:08.399Z,100814.44
2022-12-08T02:17:14.616Z,100817.88
2022-12-08T02:19:50.406Z,100804.09
2022-12-08T02:22:45.405Z,100801.53
2022-12-08T02:25:22.407Z,100807.53
2022-12-08T02:28:06.983Z,100786.91
2022-12-08T02:30:54.895Z,100781.72
2022-12-08T02:33:59.077Z,100785.19
2022-12-08T02:36:36.103Z,100790.31
2022-12-08T02:39:25.787Z,100794.63
2022-12-08T02:42:02.407Z,100780.00
2022-12-08T02:44:38.132Z,100759.34
2022-12-08T02:47:13.787Z,100792.91
2022-12-08T02:49:40.451Z,100758.50
2022-12-08T02:52:12.941Z,100789.47
2022-12-08T02:54:45.154Z,100779.16
2022-12-08T02:57:33.544Z,100780.00
2022-12-08T03:00:14.172Z,100769.66
2022-12-08T03:02:56.782Z,100729.25
2022-12-08T03:05:26.591Z,100759.34
2022-12-08T03:07:56.354Z,100747.28
2022-12-08T03:10:37.664Z,100735.22
2022-12-08T03:13:17.249Z,100700.88
2022-12-08T03:15:47.553Z,100750.75
2022-12-08T03:18:17.191Z,100754.16
2022-12-08T03:20:46.305Z,100750.72
2022-12-08T03:23:16.530Z,100734.38
2022-12-08T03:25:57.941Z,100715.41
2022-12-08T03:28:25.285Z,100712.00
2022-12-08T03:30:56.000Z,100685.34
2022-12-08T03:33:27.801Z,100698.25
2022-12-08T03:35:55.674Z,100698.28
2022-12-08T03:38:23.241Z,100710.25
2022-12-08T03:41:10.153Z,100668.09
2022-12-08T03:43:37.427Z,100686.97
2022-12-08T03:46:04.387Z,100688.72
2022-12-08T03:48:31.211Z,100677.50
2022-12-08T03:50:57.890Z,100644.88
2022-12-08T03:53:24.559Z,100653.44
2022-12-08T03:55:52.790Z,100609.63
2022-12-08T03:58:19.421Z,100629.41
2022-12-08T04:00:46.045Z,100600.25
2022-12-08T04:03:12.739Z,100604.56
2022-12-08T04:05:39.444Z,100601.88
2022-12-08T04:08:06.378Z,100646.53
2022-12-08T04:10:33.089Z,100649.16
2022-12-08T04:12:59.777Z,100617.38
2022-12-08T04:15:26.425Z,100630.22
2022-12-08T04:17:53.079Z,100648.31
2022-12-08T04:20:19.736Z,100583.75
2022-12-08T04:22:46.409Z,100606.16
2022-12-08T04:25:13.158Z,100616.38
2022-12-08T04:27:39.794Z,100637.03
2022-12-08T04:30:07.466Z,100641.31
2022-12-08T04:32:45.792Z,100624.91
2022-12-08T04:35:14.119Z,100610.38
2022-12-08T04:37:40.959Z,100625.91
2022-12-08T04:40:08.164Z,100570.09
2022-12-08T04:42:34.784Z,100600.16
2022-12-08T04:45:01.417Z,100597.66
2022-12-08T04:47:28.145Z,100591.63
2022-12-08T04:49:54.857Z,100627.75
2022-12-08T04:52:21.696Z,100635.50
2022-12-08T04:54:48.528Z,100586.50
2022-12-08T04:57:15.377Z,100582.22
2022-12-08T04:59:42.021Z,100630.22
2022-12-08T05:02:08.939Z,100594.22
2022-12-08T05:04:35.694Z,100598.44
2022-12-08T05:07:02.664Z,100665.50
2022-12-08T05:09:29.519Z,100678.41
2022-12-08T05:11:56.149Z,100664.69
2022-12-08T05:14:23.141Z,100692.22
2022-12-08T05:16:50.144Z,100655.28
2022-12-08T05:19:17.115Z,100693.94
2022-12-08T05:21:43.986Z,100694.00
2022-12-08T05:24:10.936Z,100643.22
2022-12-08T05:26:37.673Z,100651.00
2022-12-08T05:29:04.507Z,100651.84
2022-12-08T05:31:31.620Z,100667.31
2022-12-08T05:34:02.829Z,100657.00
2022-12-08T05:36:30.009Z,100650.13
2022-12-08T05:38:58.304Z,100656.13
2022-12-08T05:41:25.254Z,100670.72
2022-12-08T05:43:51.997Z,100656.94
2022-12-08T05:46:19.567Z,100645.81
2022-12-08T05:48:46.373Z,100600.31
2022-12-08T05:51:20.738Z,100586.53
2022-12-08T05:53:49.711Z,100635.47
2022-12-08T05:56:16.816Z,100644.88
2022-12-08T05:58:43.709Z,100665.56
2022-12-08T06:01:28.721Z,100667.22
2022-12-08T06:03:57.320Z,100648.41
2022-12-08T06:06:24.447Z,100643.19
2022-12-08T06:08:51.612Z,100656.97
2022-12-08T06:11:29.528Z,100627.75
2022-12-08T06:13:57.854Z,100668.97
2022-12-08T06:16:26.336Z,100630.28
2022-12-08T06:18:53.614Z,100609.69
2022-12-08T06:21:21.034Z,100665.53
2022-12-08T06:23:49.857Z,100635.50
2022-12-08T06:26:17.194Z,100651.81
2022-12-08T06:28:54.522Z,100667.28
2022-12-08T06:31:24.680Z,100655.25
2022-12-08T06:33:54.200Z,100661.25
2022-12-08T06:36:24.246Z,100649.19
2022-12-08T06:38:54.125Z,100641.44
2022-12-08T06:41:20.852Z,100618.16
2022-12-08T06:43:50.191Z,100611.34
2022-12-08T06:46:19.302Z,100552.06
2022-12-08T06:48:50.668Z,100633.63
2022-12-08T06:51:19.723Z,100649.19
2022-12-08T06:53:47.495Z,100606.28
2022-12-08T07:13:46.893Z,100620.75
2022-12-08T07:24:35.422Z,100581.25
2022-12-08T07:27:02.634Z,100558.78
2022-12-08T07:29:32.600Z,100550.13
2022-12-08T07:31:59.417Z,100606.69
2022-12-08T07:34:26.211Z,100556.06
2022-12-08T07:36:53.079Z,100584.34
2022-12-08T07:39:19.859Z,100562.16
2022-12-08T07:41:46.710Z,100568.22
2022-12-08T07:44:13.612Z,100591.38
2022-12-08T07:46:40.505Z,100563.94
2022-12-08T07:49:07.357Z,100557.03
2022-12-08T07:51:34.111Z,100599.91
2022-12-08T07:54:01.061Z,100587.06
2022-12-08T07:56:27.882Z,100583.63
2022-12-08T07:58:54.594Z,100582.75
2022-12-08T08:01:29.495Z,100641.13
2022-12-08T08:03:58.473Z,100648.94
2022-12-08T08:06:25.465Z,100607.72
2022-12-08T08:08:52.173Z,100606.00
2022-12-08T08:11:21.668Z,100626.59
2022-12-08T08:13:50.130Z,100618.97
2022-12-08T08:16:17.064Z,100600.88
2022-12-08T08:18:43.971Z,100567.38
2022-12-08T08:23:57.562Z,100603.41
2022-12-08T08:26:24.381Z,100616.19
2022-12-08T08:28:51.169Z,100609.41
2022-12-08T08:33:59.090Z,100606.75
2022-12-08T08:36:28.261Z,100615.41
2022-12-08T08:38:54.906Z,100604.28
2022-12-08T08:41:21.592Z,100584.53
2022-12-08T08:43:48.361Z,100633.38
2022-12-08T08:46:15.115Z,100580.22
2022-12-08T08:48:42.441Z,100625.81
2022-12-08T08:51:11.402Z,100599.00
2022-12-08T08:53:38.420Z,100556.19
2022-12-08T08:56:13.551Z,100645.44
2022-12-08T08:58:40.607Z,100642.03
2022-12-08T09:01:07.478Z,100595.53
2022-12-08T09:03:34.288Z,100642.78
2022-12-08T09:06:01.022Z,100652.34
2022-12-08T09:08:27.915Z,100642.03
2022-12-08T09:10:54.932Z,100560.31
2022-12-08T09:13:22.400Z,100633.31
2022-12-08T09:15:49.536Z,100642.66
2022-12-08T09:18:16.314Z,100577.50
2022-12-08T09:20:43.043Z,100614.44
2022-12-08T09:23:09.862Z,100594.69
2022-12-08T09:25:36.822Z,100634.94
2022-12-08T09:28:03.623Z,100591.25
2022-12-08T09:30:31.541Z,100606.63
2022-12-08T09:32:58.260Z,100599.78
2022-12-08T09:35:24.924Z,100555.94
2022-12-08T09:37:51.651Z,100625.44
2022-12-08T09:40:21.555Z,100591.03
2022-12-08T09:42:55.879Z,100562.00
2022-12-08T09:45:27.114Z,100560.25
2022-12-08T09:48:03.236Z,100637.38
2022-12-08T09:50:35.619Z,100641.81
2022-12-08T09:53:45.733Z,100644.31
2022-12-08T09:56:23.769Z,100666.38
2022-12-08T09:58:58.562Z,100623.78
2022-12-08T10:01:41.982Z,100676.06
2022-12-08T10:04:20.469Z,100620.34
2022-12-08T10:06:56.071Z,100664.94
2022-12-08T10:09:43.997Z,100667.41
2022-12-08T10:12:48.125Z,100660.75
2022-12-08T10:15:50.358Z,100642.63
2022-12-08T10:18:24.721Z,100638.41
2022-12-08T10:20:52.259Z,100565.34
2022-12-08T10:23:27.463Z,100572.19
2022-12-08T10:26:07.633Z,100624.44
2022-12-08T10:28:38.748Z,100592.78
2022-12-08T10:31:22.319Z,100590.13
2022-12-08T10:34:00.487Z,100659.72
2022-12-08T10:36:49.979Z,100674.41
2022-12-08T10:39:38.366Z,100651.78
2022-12-08T10:42:32.397Z,100632.84
2022-12-08T10:45:17.350Z,100651.78
2022-12-08T10:48:01.220Z,100564.25
2022-12-08T10:50:36.794Z,100631.09
2022-12-08T10:53:09.781Z,100626.09
2022-12-08T10:55:42.534Z,100570.31
2022-12-08T10:58:24.308Z,100615.75
2022-12-08T11:01:11.345Z,100602.78
2022-12-08T11:03:43.913Z,100595.03
2022-12-08T11:06:31.964Z,100590.59
2022-12-08T11:09:18.699Z,100605.22
2022-12-08T11:11:54.814Z,100544.47
2022-12-08T11:14:26.268Z,100596.66
2022-12-08T11:16:55.364Z,100564.81
2022-12-08T11:19:27.989Z,100580.19
2022-12-08T11:21:54.926Z,100603.44
2022-12-08T11:24:31.138Z,100569.22
2022-12-08T11:27:05.344Z,100563.81
2022-12-08T11:29:33.991Z,100612.03
2022-12-08T11:32:11.534Z,100539.22
2022-12-08T11:34:46.785Z,100531.25
2022-12-08T11:37:39.301Z,100543.22
2022-12-08T11:40:30.867Z,100576.38
2022-12-08T11:43:16.806Z,100545.69
2022-12-08T11:45:44.269Z,100546.53
2022-12-08T11:48:19.276Z,100570.59
2022-12-08T11:50:50.794Z,100566.31
2022-12-08T11:53:28.073Z,100559.56
2022-12-08T11:56:00.605Z,100556.84
2022-12-08T11:58:45.071Z,100611.81
2022-12-08T12:01:23.453Z,100606.50
2022-12-08T12:04:02.224Z,100621.09
2022-12-08T12:06:54.898Z,100612.00
2022-12-08T12:09:34.247Z,100622.06
2022-12-08T12:12:33.712Z,100600.84
2022-12-08T12:15:49.875Z,100597.19
2022-12-08T12:18:28.949Z,100554.38
2022-12-08T12:21:18.533Z,100584.34
2022-12-08T12:23:59.529Z,100574.81
2022-12-08T12:26:29.270Z,100571.44
2022-12-08T12:29:08.078Z,100551.91
2022-12-08T12:31:42.511Z,100572.50
2022-12-08T12:34:23.446Z,100614.66
2022-12-08T12:36:57.619Z,100554.41
2022-12-08T12:39:34.151Z,100544.06
2022-12-08T12:42:02.843Z,100568.84
2022-12-08T12:44:29.467Z,100595.28
2022-12-08T12:46:57.825Z,100583.88
2022-12-08T12:49:39.899Z,100594.22
2022-12-08T12:52:15.589Z,100607.41
2022-12-08T12:55:11.376Z,100609.72
2022-12-08T12:57:40.244Z,100621.00
2022-12-08T13:00:09.651Z,100604.88
2022-12-08T13:02:36.596Z,100609.84
2022-12-08T13:05:10.940Z,100540.94
2022-12-08T13:08:00.852Z,100568.91
2022-12-08T13:10:32.137Z,100535.09
2022-12-08T13:13:19.162Z,100521.22
2022-12-08T13:16:17.152Z,100516.81
2022-12-08T13:18:51.120Z,100574.59
2022-12-08T13:21:23.915Z,100582.19
2022-12-08T13:24:10.604Z,100571.91
2022-12-08T13:26:48.768Z,100545.31
2022-12-08T13:29:19.879Z,100548.75
2022-12-08T13:31:51.237Z,100557.44
2022-12-08T13:34:35.885Z,100563.94
2022-12-08T13:37:11.743Z,100559.88
2022-12-08T13:39:45.038Z,100558.34
2022-12-08T13:42:25.022Z,100558.25
2022-12-08T13:45:33.461Z,100531.13
2022-12-08T13:55:07.199Z,100507.75
2022-12-08T13:57:26.259Z,100496.56
2022-12-08T13:59:53.131Z,100455.50
2022-12-08T14:02:33.265Z,100490.59
2022-12-08T14:07:50.026Z,100482.16
2022-12-08T14:10:22.136Z,100499.44
2022-12-08T14:12:55.651Z,100497.47
2022-12-08T14:15:22.654Z,100458.81
2022-12-08T14:17:54.671Z,100488.94
2022-12-08T14:20:33.810Z,100505.75
2022-12-08T14:23:09.177Z,100488.94
2022-12-08T14:25:36.085Z,100483.13
2022-12-08T14:28:04.714Z,100530.91
2022-12-08T14:30:32.776Z,100460.69
2022-12-08T14:33:02.216Z,100473.56
2022-12-08T14:35:31.155Z,100494.81
2022-12-08T14:38:00.686Z,100460.34
2022-12-08T14:40:42.215Z,100463.78
2022-12-08T14:43:08.913Z,100520.09
2022-12-08T14:45:51.905Z,100511.75
2022-12-08T14:48:25.691Z,100528.25
2022-12-08T14:51:23.387Z,100524.00
2022-12-08T14:54:09.580Z,100526.47
2022-12-08T14:56:36.370Z,100525.56
2022-12-08T14:59:11.917Z,100522.34
2022-12-08T15:01:39.634Z,100499.16
2022-12-08T15:04:19.362Z,100497.19
2022-12-08T15:06:54.516Z,100517.66
2022-12-08T15:09:43.498Z,100523.75
2022-12-08T15:12:13.305Z,100516.16
2022-12-08T15:14:54.860Z,100488.03
2022-12-08T15:17:40.329Z,100479.47
2022-12-08T15:20:27.576Z,100450.41
2022-12-08T15:22:58.567Z,100503.59
2022-12-08T15:25:25.639Z,100469.53
2022-12-08T15:27:56.596Z,100476.38
2022-12-08T15:30:23.948Z,100475.56
2022-12-08T15:32:52.396Z,100495.22
2022-12-08T15:35:19.171Z,100518.75
2022-12-08T15:37:46.592Z,100478.31
2022-12-08T15:40:19.863Z,100509.44
2022-12-08T15:42:46.681Z,100481.22
2022-12-08T15:45:14.687Z,100500.47
2022-12-08T15:47:42.620Z,100482.56
2022-12-08T15:50:22.090Z,100533.03
2022-12-08T15:52:50.350Z,100526.22
2022-12-08T15:55:19.503Z,100484.97
2022-12-08T16:00:52.656Z,100510.84
2022-12-08T16:09:17.208Z,100473.13
2022-12-08T16:12:07.853Z,100451.59
2022-12-08T16:17:23.439Z,100451.59
2022-12-08T16:19:50.257Z,100485.19
2022-12-08T16:25:22.451Z,100487.81
2022-12-08T16:28:05.424Z,100455.22
2022-12-08T16:30:39.280Z,100502.25
2022-12-08T16:33:06.208Z,100504.84
2022-12-08T16:35:33.247Z,100450.88
2022-12-08T16:37:59.958Z,100467.25
2022-12-08T16:40:26.638Z,100444.13
2022-12-08T16:42:53.598Z,100488.50
2022-12-08T16:45:25.218Z,100493.06
2022-12-08T16:47:54.427Z,100472.31
2022-12-08T16:50:27.326Z,100460.44
2022-12-08T16:53:02.660Z,100423.44
2022-12-08T16:55:29.731Z,100420.91
2022-12-08T16:57:56.486Z,100459.28
2022-12-08T17:00:25.829Z,100486.97
2022-12-08T17:02:53.465Z,100409.81
2022-12-08T17:05:22.808Z,100480.13
2022-12-08T17:07:51.799Z,100479.25
2022-12-08T17:10:21.025Z,100436.34
2022-12-08T17:12:47.724Z,100455.13
2022-12-08T17:15:18.067Z,100485.75
2022-12-08T17:17:44.834Z,100457.75
2022-12-08T17:20:29.675Z,100472.41
2022-12-08T17:22:58.234Z,100486.72
2022-12-08T17:25:26.196Z,100444.91
2022-12-08T17:27:52.914Z,100469.09
2022-12-08T17:30:19.850Z,100436.28
2022-12-08T17:32:46.627Z,100465.44
2022-12-08T17:35:14.390Z,100483.47
2022-12-08T17:37:42.892Z,100456.97
2022-12-08T17:40:09.947Z,100479.25
2022-12-08T17:42:38.059Z,100422.72
2022-12-08T17:45:06.752Z,100436.31
2022-12-08T17:47:33.567Z,100458.19
2022-12-08T17:50:00.964Z,100429.50
2022-12-08T17:52:27.775Z,100417.44
2022-12-08T17:54:54.488Z,100398.44
2022-12-08T17:57:21.241Z,100397.59
2022-12-08T17:59:48.003Z,100398.53
2022-12-08T18:02:15.238Z,100399.41
2022-12-08T18:04:41.985Z,100422.28
2022-12-08T18:07:08.678Z,100451.53
2022-12-08T18:09:35.432Z,100468.06
2022-12-08T18:12:02.186Z,100392.63
2022-12-08T18:14:28.926Z,100410.50
2022-12-08T18:16:55.801Z,100426.09
2022-12-08T18:19:22.659Z,100420.81
2022-12-08T18:21:49.454Z,100424.06
2022-12-08T18:24:20.965Z,100437.94
2022-12-08T18:26:48.852Z,100404.53
2022-12-08T18:29:15.802Z,100421.53
2022-12-08T18:31:42.571Z,100463.56
2022-12-08T18:34:09.269Z,100384.59
2022-12-08T18:36:36.114Z,100383.94
2022-12-08T18:39:08.768Z,100348.81
2022-12-08T18:41:37.826Z,100395.91
2022-12-08T18:44:04.868Z,100377.94
2022-12-08T18:46:31.760Z,100363.47
2022-12-08T18:48:59.610Z,100390.19
2022-12-08T18:51:26.470Z,100390.06
2022-12-08T18:56:36.690Z,100378.03
2022-12-08T18:59:07.453Z,100420.03
2022-12-08T19:01:36.637Z,100394.50
2022-12-08T19:06:53.761Z,100407.09
2022-12-08T19:09:20.982Z,100370.50
2022-12-08T19:11:47.941Z,100358.59
2022-12-08T19:14:15.193Z,100383.28
2022-12-08T19:16:42.248Z,100369.63
2022-12-08T19:19:09.473Z,100332.75
2022-12-08T19:21:46.532Z,100363.53
2022-12-08T19:24:13.651Z,100356.72
2022-12-08T19:26:41.052Z,100337.97
2022-12-08T19:29:07.845Z,100352.66
2022-12-08T19:31:38.332Z,100403.13
2022-12-08T19:34:09.442Z,100387.63
2022-12-08T19:36:43.176Z,100356.78
2022-12-08T19:42:41.298Z,100355.78
2022-12-08T19:45:17.609Z,100343.06
2022-12-08T19:47:44.816Z,100304.59
2022-12-08T19:50:31.864Z,100341.34
2022-12-08T19:52:59.382Z,100347.47
2022-12-08T19:55:26.626Z,100313.25
2022-12-08T19:57:54.896Z,100329.50
2022-12-08T20:00:21.780Z,100343.41
2022-12-08T20:02:49.235Z,100284.03
2022-12-08T20:05:17.677Z,100327.88
2022-12-08T20:07:45.456Z,100315.09
2022-12-08T20:10:16.887Z,100311.72
2022-12-08T20:12:43.673Z,100292.72
2022-12-08T20:15:11.235Z,100326.28
2022-12-08T20:17:38.737Z,100320.97
2022-12-08T20:20:07.586Z,100315.84
2022-12-08T20:22:34.924Z,100322.66
2022-12-08T20:25:02.344Z,100322.81
2022-12-08T20:27:29.263Z,100294.16
2022-12-08T20:29:56.189Z,100302.66
2022-12-08T20:32:22.982Z,100311.22
2022-12-08T20:34:49.749Z,100293.38
2022-12-08T20:37:16.591Z,100299.44
2022-12-08T20:39:43.342Z,100279.84
2022-12-08T20:42:13.931Z,100301.06
2022-12-08T20:44:44.527Z,100289.97
2022-12-08T20:47:12.333Z,100298.59
2022-12-08T20:49:39.298Z,100301.97
2022-12-08T20:52:06.107Z,100313.97
2022-12-08T20:54:33.130Z,100315.63
2022-12-08T20:57:00.782Z,100320.69
2022-12-08T20:59:27.509Z,100290.72
2022-12-08T21:01:54.573Z,100282.28
2022-12-08T21:04:22.826Z,100302.00
2022-12-08T21:06:50.279Z,100313.06
2022-12-08T21:09:17.199Z,100272.06
2022-12-08T21:11:44.544Z,100283.09
2022-12-08T21:14:11.381Z,100289.00
2022-12-08T21:16:38.291Z,100283.91
2022-12-08T21:19:06.224Z,100266.16
2022-12-08T21:21:33.238Z,100247.03
2022-12-08T21:24:00.058Z,100275.66
2022-12-08T21:26:27.063Z,100252.44
2022-12-08T21:28:58.529Z,100243.53
2022-12-08T21:31:31.870Z,100239.06
2022-12-08T21:33:59.839Z,100221.38
2022-12-08T21:36:26.846Z,100238.38
2022-12-08T21:38:55.002Z,100241.78
2022-12-08T21:41:42.463Z,100210.84
2022-12-08T21:44:12.594Z,100202.44
2022-12-08T21:46:39.556Z,100194.59
2022-12-08T21:49:06.406Z,100192.88
2022-12-08T21:51:35.157Z,100194.47
2022-12-08T21:54:01.953Z,100182.63
2022-12-08T21:56:28.902Z,100174.88
2022-12-08T21:58:55.642Z,100145.69
2022-12-08T22:01:22.354Z,100172.34
2022-12-08T22:03:49.307Z,100173.25
2022-12-08T22:06:16.425Z,100175.69
2022-12-08T22:08:45.307Z,100132.13
2022-12-08T22:11:15.228Z,100138.97
2022-12-08T22:13:42.441Z,100173.00
2022-12-08T22:16:11.644Z,100155.13
2022-12-08T22:18:42.498Z,100155.94
2022-12-08T22:21:14.140Z,100172.13
2022-12-08T22:23:41.057Z,100166.31
2022-12-08T22:26:08.767Z,100154.91
2022-12-08T22:28:41.991Z,100157.25
2022-12-08T22:31:15.673Z,100151.03
2022-12-08T22:33:42.905Z,100154.69
2022-12-08T22:36:19.434Z,100137.78
2022-12-08T22:38:46.836Z,100155.53
2022-12-08T22:41:13.581Z,100145.22
2022-12-08T22:43:41.144Z,100135.88
2022-12-08T22:46:17.317Z,100121.28
2022-12-08T22:48:44.243Z,100140.88
2022-12-08T22:51:11.345Z,100118.75
2022-12-08T22:53:38.326Z,100120.63
2022-12-08T22:56:10.455Z,100151.47
2022-12-08T22:58:38.504Z,100140.81
2022-12-08T23:01:06.281Z,100113.47
2022-12-08T23:03:33.617Z,100144.25
2022-12-08T23:06:01.450Z,100140.88
2022-12-08T23:08:28.654Z,100115.16
2022-12-08T23:10:55.902Z,100106.59
2022-12-08T23:13:22.855Z,100068.41
2022-12-08T23:15:50.128Z,100133.91
2022-12-08T23:18:19.338Z,100124.44
2022-12-08T23:20:47.628Z,100117.78
2022-12-08T23:23:15.484Z,100119.41
2022-12-08T23:25:43.287Z,100118.56
2022-12-08T23:28:11.162Z,100121.19
2022-12-08T23:30:41.005Z,100065.59
2022-12-08T23:33:07.987Z,100069.78
2022-12-08T23:35:34.855Z,100055.31
2022-12-08T23:38:01.639Z,100076.59
2022-12-08T23:40:28.338Z,100074.09
2022-12-08T23:42:55.048Z,100051.72
2022-12-08T23:45:22.086Z,100056.06
2022-12-08T23:47:48.737Z,100071.31
2022-12-08T23:50:15.450Z,100074.75
2022-12-08T23:52:42.196Z,100090.97
2022-12-08T23:55:09.442Z,100073.88
2022-12-08T23:57:37.769Z,100031.75
